Flight Track Log - Related Links

Times and Time Zones

All times are in EDT time to prevent confusion due to time zone crossing. See the UCA597 flight status page for this flight to view local times or setup timezone preferences in your user account.

Time Position Orientation Groundspeed Altitude Reporting Facility
EDT Latitude Longitude Course Direction KTS MPH feet Rate Location/Type
Mon 21:35:33 38.9500 -77.5000 19° North 136 157 1,700  Level Potomac TRACON
Mon 21:36:33 39.0000 -77.5333 333° Northwest 173 199 3,000 1,400 Climbing Potomac TRACON
Mon 21:37:33 39.0333 -77.5500 339° North 174 200 4,500 1,524 Climbing Potomac TRACON
Mon 21:38:39 39.0833 -77.5333 15° North 167 192 6,200 1,439 Climbing Potomac TRACON
Mon 21:40:24 39.1583 -77.5269 North 168 193 8,600 1,273 Climbing Washington Center
Mon 21:41:00 38.9795 -77.4461 19° North  Level Estimated
Mon 21:41:24 39.2022 -77.5200 North 163 188 9,700  Level Washington Center
Mon 21:42:24 39.2461 -77.5133 North 163 188 10,900 1,169 Climbing Washington Center
Mon 21:43:22 39.2922 -77.5064 North 158 182 12,000 1,271 Climbing Washington Center
Mon 21:44:22 39.3381 -77.4994 North 164 189 13,400 1,388 Climbing Washington Center
Mon 21:45:23 39.3797 -77.4953 North 159 183 14,800 1,230 Climbing Washington Center
Mon 21:46:24 39.4217 -77.4883 North 159 183 15,900 890 Climbing Washington Center
Mon 21:48:25 39.5206 -77.4756 North 162 186 17,500 729 Climbing New York Center
Mon 21:49:25 39.5711 -77.4669 North 167 192 18,100 750 Climbing New York Center
Mon 21:50:25 39.6239 -77.4558 North 172 198 19,000 450 Climbing New York Center
Mon 21:51:25 39.6761 -77.4525 North 191 220 19,000  Level New York Center
Mon 21:52:25 39.7428 -77.4536 359° North 204 235 19,000  Level New York Center
Mon 21:53:25 39.7994 -77.4481 North 222 255 19,000  Level New York Center
Mon 21:54:25 39.8678 -77.4194 18° North 227 261 19,000  Level New York Center
Mon 21:55:25 39.9256 -77.3925 20° North 232 267 19,000  Level New York Center
Mon 21:56:25 39.9958 -77.3639 17° North 232 267 19,000  Level New York Center
Mon 21:57:25 40.0539 -77.3367 20° North 232 267 19,000  Level New York Center
Mon 21:58:25 40.1261 -77.3083 17° North 232 267 19,000  Level New York Center
Mon 21:59:25 40.1839 -77.2839 18° North 237 273 19,000 -150 Level New York Center
Mon 22:00:25 40.2544 -77.2522 19° North 237 273 18,700 -500 Descending New York Center
Mon 22:01:25 40.3119 -77.2278 18° North 237 273 18,000 -350 Descending New York Center
Mon 22:02:25 40.3847 -77.1964 18° North 247 284 18,000  Level New York Center
Mon 22:03:25 40.4422 -77.1717 18° North 242 278 18,000 -200 Level New York Center
Mon 22:04:25 40.5106 -77.1425 18° North 237 273 17,600 -700 Descending New York Center
Mon 22:05:25 40.5725 -77.1156 18° North 242 278 16,600 -1,100 Descending New York Center
Mon 22:06:25 40.6494 -77.0817 18° North 250 288 15,400 -800 Descending New York Center
Mon 22:07:25 40.7089 -77.0569 17° North 250 288 15,000 -200 Descending New York Center
Mon 22:08:25 40.7731 -77.0272 19° North 250 288 15,000  Level New York Center
Mon 22:09:25 40.8328 -77.0025 17° North 239 275 15,000  Level New York Center
Mon 22:10:25 40.8969 -76.9725 19° North 229 264 15,000  Level New York Center
Mon 22:11:25 40.9522 -76.9503 17° North 223 257 15,000  Level New York Center
Mon 22:12:25 41.0119 -76.9225 19° North 223 257 15,000  Level New York Center
Mon 22:13:25 41.0739 -76.8953 18° North 228 262 15,000  Level New York Center
Mon 22:14:25 41.1336 -76.8675 19° North 228 262 15,000  Level New York Center
Mon 22:15:25 41.1956 -76.8400 18° North 228 262 15,000  Level New York Center
Mon 22:16:25 41.2572 -76.8125 19° North 228 262 15,000  Level New York Center
Mon 22:17:25 41.3211 -76.7850 18° North 228 262 15,000  Level New York Center
Mon 22:18:25 41.3814 -76.7461 26° Northeast 233 268 15,000  Level New York Center
Mon 22:19:25 41.4422 -76.6989 30° Northeast 239 275 15,000  Level New York Center
Mon 22:20:25 41.4986 -76.6514 32° Northeast 244 281 15,000 -150 Level New York Center
Mon 22:21:25 41.5572 -76.6067 30° Northeast 244 281 14,700 -650 Descending New York Center
Mon 22:22:25 41.6178 -76.5592 30° Northeast 249 287 13,700 -1,000 Descending New York Center
Mon 22:23:25 41.6703 -76.5053 37° Northeast 249 287 12,700 -1,200 Descending New York Center
Mon 22:24:25 41.7233 -76.4458 40° Northeast 249 287 11,300 -1,400 Descending New York Center
Mon 22:25:25 41.7781 -76.3867 39° Northeast 238 274 9,900 -1,400 Descending New York Center
Mon 22:26:25 41.8244 -76.3292 43° Northeast 228 262 8,500 -1,350 Descending New York Center
Mon 22:27:25 41.8731 -76.2719 41° Northeast 223 257 7,200 -1,350 Descending New York Center
Mon 22:28:25 41.9167 -76.2256 38° Northeast 223 257 5,800 -1,350 Descending New York Center
Mon 22:29:25 41.9628 -76.1736 40° Northeast 223 257 4,500 -900 Descending New York Center
Mon 22:30:25 42.0089 -76.1214 40° Northeast 207 238 4,000 -400 Descending New York Center
Mon 22:31:25 42.0428 -76.0656 51° Northeast 194 223 3,700 -200 Descending New York Center
Mon 22:32:25 42.0789 -76.0014 53° Northeast 199 229 3,600 -100 Descending New York Center
Mon 22:33:25 42.1136 -75.9650 38° Northeast 183 211 3,500 -250 Descending New York Center
Mon 22:34:25 42.1456 -75.9481 21° North 149 171 3,100 -600 Descending New York Center
Mon 22:35:25 42.1767 -75.9531 353° North 120 138 2,300 2,950 Descending New York Center
Mon 22:36:25 42.2039 -75.9469 North 120 138 9,000 6,700 Climbing New York Center
Mon 22:38:00 42.2084 -75.9796 281° West  Level Estimated
Mon 22:45:00 42.2084 -75.9796 35° Northeast  Level Estimated
Mon 22:46:00 42.2084 -75.9796 35° Northeast  Level Estimated
Mon 22:47:00 42.2084 -75.9796 35° Northeast  Level Estimated
Mon 22:48:00 42.2084 -75.9796 35° Northeast  Level Estimated
Mon 22:49:00 42.2084 -75.9796 35° Northeast  Level Estimated
Mon 22:50:00 42.2084 -75.9796 35° Northeast  Level Estimated
Mon 22:51:00 42.2084 -75.9796 35° Northeast  Level Estimated

Login

Don't have an account? Register now (free) for customized features, flight alerts, and more!